Agana Heights, GU (96910)

12:14 AM ChST on August 29, 2015 (GMT +1000)
Maite | | Change Station
CLOSE
Current Station
Personal Weather Station
Location: Maite, GU
Elevation: 140 ft
Nearby Weather Stations
Active Advisory: High Surf Advisory

Elev 140 ft 13.48 °N, 144.76 °E | Updated 5 seconds ago

Clear
Clear
82.1 °F
Feels Like 90 °F
N
3.0
Wind Variable Wind from WNW
Gusts 6.0 mph

Today
High -- | Low -- °F
--% Chance of Precip.
Yesterday
High -- | Low -- °F
Precip. -- in
6:09 AM 6:34 PM
Waxing Gibbous, 98% visible
Pressure 29.81 in
Visibility 10.0 miles
Clouds Clear
Heat Index 90 °F
Dew Point 77 °F
Humidity 84%
Rainfall 0.00 in
Snow Depth Not available.
UV 0.0 out of 12
Pollen Not available.
Air Quality Not available.
Flu Activity Not available.
METAR PGUM 281354Z 00000KT 10SM CLR 26/23 A2983 RMK AO2 SLP094 T02610233 403110239
Pressure 29.81 in
Visibility 10.0 miles
Clouds Clear
Heat Index 90 °F
Dew Point 77 °F
Humidity 84%
Rainfall 0.00 in
Snow Depth Not available.
UV 0.0 out of 12
Pollen Not available.
Air Quality Not available.
Flu Activity Not available.
METAR PGUM 281354Z 00000KT 10SM CLR 26/23 A2983 RMK AO2 SLP094 T02610233 403110239

10-Day Weather Forecast

×

Almanac

Astronomy

Aug. 29, 2015 Rise Set
Actual Time
Civil Twilight
Nautical Twilight
Astronomical Twilight
Moon
Length of Visible Light
Length of Day
Tomorrow will be .
, % of the Moon is Illuminated

Today's Extremes

State Highs State Lows

Community

WunderPhotos

Upload Photos

1,850,379 photos uploaded!

WunderBlogs® & News

Nearby

Air Quality

  Air Quality AQ Index Pollutant
Not available.

Snow Depth

Station Depth Elevation

Earthquake Activity

City Distance Mag. Time & Date
Minimum magnitude displayed is 2.5.

Coastal Water Temperatures

Place Temperature

Stations

Nearby Weather Stations

Station Location Temp. Windchill Dew Point Humidity Wind Precip. Elev Updated Type
                   
High Surf Advisory
Statement as of 3:38 PM GMT on August 28, 2015

... High surf advisory now in effect until 6 PM chst Saturday...

Hazardous surf of 8 to 10 feet along north facing shores is
expected tonight. Surf will begin to subside Saturday and is
expected to fall below hazardous levels by Saturday evening.

Precautionary/preparedness actions...

Avoid venturing near exposed reefs and beaches... especially those
facing north... as rip currents will be life threatening.



Kleeschulte